Time;durP1;ratioP1;P1;durP2;ratioP2;P2;SDS_P1;SDS_P2;PMS_P1;PMS_P2;Temp;Humidity;BMP_temperature;BMP_pressure;BME280_temperature;BME280_humidity;BME280_pressure;Samples;Min_cycle;Max_cycle;Signal;HPM_P1;HPM_P2
2021/07/26 00:02:08;;;;;;;139.70;32.95;;;16.50;99.90;;;;;;4821488;29;20508;-88
2021/07/26 00:04:39;;;;;;;93.63;31.85;;;16.50;99.90;;;;;;4822746;29;20057;-87
2021/07/26 00:07:06;;;;;;;118.88;31.92;;;16.50;99.90;;;;;;4820007;29;20435;-88
2021/07/26 00:09:34;;;;;;;152.90;32.28;;;16.50;99.90;;;;;;4822875;29;20076;-87
2021/07/26 00:12:02;;;;;;;97.85;31.17;;;16.50;99.90;;;;;;4822951;29;20058;-87
2021/07/26 00:14:29;;;;;;;74.05;30.33;;;16.50;99.90;;;;;;4822345;29;20051;-87
2021/07/26 00:16:56;;;;;;;100.10;31.70;;;16.60;99.90;;;;;;4822625;29;20061;-87
2021/07/26 00:19:23;;;;;;;86.07;31.20;;;16.60;99.90;;;;;;4817982;29;20510;-88
2021/07/26 00:21:51;;;;;;;127.60;34.30;;;16.60;99.90;;;;;;4806608;29;20050;-88
2021/07/26 00:24:19;;;;;;;110.43;32.83;;;16.60;99.90;;;;;;4821885;29;20058;-88
2021/07/26 00:26:46;;;;;;;107.85;32.65;;;16.60;99.90;;;;;;4836601;29;20050;-87
2021/07/26 00:29:13;;;;;;;84.18;31.33;;;16.60;99.90;;;;;;4822095;29;20103;-87
2021/07/26 00:31:40;;;;;;;80.28;31.38;;;16.70;99.90;;;;;;4822779;29;20054;-88
2021/07/26 00:34:21;;;;;;;74.88;32.95;;;16.70;99.90;;;;;;4823982;29;20524;-87
2021/07/26 00:36:49;;;;;;;98.70;35.15;;;16.70;99.90;;;;;;4825054;29;20133;-88
2021/07/26 00:39:18;;;;;;;132.40;36.03;;;16.70;99.90;;;;;;4809115;29;20050;-88
2021/07/26 00:41:47;;;;;;;156.75;36.05;;;16.70;99.90;;;;;;4824931;29;20057;-88
2021/07/26 00:44:15;;;;;;;86.95;35.58;;;16.70;99.90;;;;;;4825187;29;20046;-88
2021/07/26 00:46:43;;;;;;;84.57;36.07;;;16.70;99.90;;;;;;4825727;29;20050;-87
2021/07/26 00:49:12;;;;;;;109.15;37.72;;;16.80;99.90;;;;;;4825803;29;20298;-88
2021/07/26 00:51:43;;;;;;;92.53;37.35;;;16.80;99.90;;;;;;4825842;29;20053;-87
2021/07/26 00:54:11;;;;;;;108.65;39.28;;;16.80;99.90;;;;;;4825088;29;20050;-88
2021/07/26 00:56:39;;;;;;;85.97;37.57;;;16.80;99.90;;;;;;4825757;29;20046;-88
2021/07/26 00:59:08;;;;;;;85.65;39.00;;;16.80;99.90;;;;;;4825098;29;20315;-88
2021/07/26 01:01:36;;;;;;;94.43;41.25;;;16.80;99.90;;;;;;4825850;29;20477;-88
2021/07/26 01:04:03;;;;;;;85.65;41.15;;;16.80;99.90;;;;;;4826128;29;20089;-88
2021/07/26 01:06:31;;;;;;;79.47;39.85;;;16.80;99.90;;;;;;4824925;29;20500;-88
2021/07/26 01:08:58;;;;;;;75.57;38.22;;;16.80;99.90;;;;;;4825332;29;20050;-88
2021/07/26 01:11:25;;;;;;;65.68;36.85;;;16.80;99.90;;;;;;4825063;29;20053;-88
2021/07/26 01:13:52;;;;;;;67.32;37.67;;;16.80;99.90;;;;;;4809486;29;20073;-88
2021/07/26 01:16:19;;;;;;;65.03;36.60;;;16.80;99.90;;;;;;4824956;29;20054;-88
2021/07/26 01:18:46;;;;;;;62.60;35.35;;;16.80;99.90;;;;;;4821084;29;20053;-87
2021/07/26 01:21:16;;;;;;;60.45;35.13;;;16.80;99.90;;;;;;4833906;29;20420;-88
2021/07/26 01:23:45;;;;;;;65.55;36.95;;;16.80;99.90;;;;;;4817418;29;20054;-87
2021/07/26 01:26:15;;;;;;;62.33;35.42;;;16.80;99.90;;;;;;4838803;29;20050;-87
2021/07/26 01:28:45;;;;;;;64.82;36.83;;;16.80;99.90;;;;;;4825116;29;20380;-88
2021/07/26 01:31:12;;;;;;;62.00;36.83;;;16.80;99.90;;;;;;4823795;29;20393;-88
2021/07/26 01:33:41;;;;;;;63.72;36.40;;;16.80;99.90;;;;;;4825036;29;20061;-88
2021/07/26 01:36:09;;;;;;;72.30;37.72;;;16.80;99.90;;;;;;4808397;29;20047;-87
2021/07/26 01:38:36;;;;;;;69.13;38.23;;;16.80;99.90;;;;;;4825129;29;20046;-87
2021/07/26 01:41:04;;;;;;;68.65;36.92;;;16.80;99.90;;;;;;4825050;29;20058;-88
2021/07/26 01:43:38;;;;;;;63.72;36.53;;;16.80;99.90;;;;;;4824821;29;20061;-88
2021/07/26 01:46:27;;;;;;;66.72;37.88;;;16.80;99.90;;;;;;4824074;29;20062;-87
2021/07/26 01:49:19;;;;;;;65.70;37.95;;;16.90;99.90;;;;;;4839258;29;20054;-88
2021/07/26 01:51:46;;;;;;;66.07;39.00;;;16.90;99.90;;;;;;4808191;29;20461;-88
2021/07/26 01:54:13;;;;;;;64.82;37.60;;;16.90;99.90;;;;;;4824235;29;20054;-87
2021/07/26 01:56:41;;;;;;;61.35;37.03;;;16.90;99.90;;;;;;4824609;29;20046;-87
2021/07/26 01:59:08;;;;;;;61.97;36.83;;;16.90;99.90;;;;;;4824204;29;20073;-87
2021/07/26 02:01:35;;;;;;;58.92;36.90;;;16.90;99.90;;;;;;4808442;29;20061;-88
2021/07/26 02:04:02;;;;;;;62.13;36.67;;;16.90;99.90;;;;;;4822026;29;20536;-87
2021/07/26 02:06:29;;;;;;;58.40;36.33;;;16.90;99.90;;;;;;4823097;29;20134;-88
2021/07/26 02:08:56;;;;;;;57.88;35.83;;;16.90;99.90;;;;;;4823431;29;20063;-88
2021/07/26 02:11:23;;;;;;;56.35;36.17;;;16.90;99.90;;;;;;4822677;29;20389;-88
2021/07/26 02:13:52;;;;;;;56.38;34.75;;;16.90;99.90;;;;;;4821180;29;20539;-88
2021/07/26 02:16:22;;;;;;;57.80;35.28;;;16.90;99.90;;;;;;4822963;29;20141;-87
2021/07/26 02:18:49;;;;;;;60.45;34.95;;;17.00;99.90;;;;;;4822603;29;20058;-88
2021/07/26 02:21:16;;;;;;;54.35;33.83;;;17.00;99.90;;;;;;4823721;29;20050;-88
2021/07/26 02:23:44;;;;;;;52.13;33.63;;;17.00;99.90;;;;;;4824314;29;20058;-88
2021/07/26 02:26:11;;;;;;;54.58;33.72;;;17.00;99.90;;;;;;4822796;29;20070;-88
2021/07/26 02:28:39;;;;;;;46.50;31.23;;;17.00;99.90;;;;;;4824181;29;20510;-88
2021/07/26 02:31:06;;;;;;;50.95;32.50;;;16.90;99.90;;;;;;4806278;29;20081;-87
2021/07/26 02:33:33;;;;;;;51.83;31.52;;;16.90;99.90;;;;;;4824020;29;20065;-87
2021/07/26 02:36:00;;;;;;;55.65;32.33;;;16.90;99.90;;;;;;4823025;29;20057;-87
2021/07/26 02:38:27;;;;;;;50.05;32.10;;;16.90;99.90;;;;;;4823176;29;20129;-88
2021/07/26 02:40:54;;;;;;;47.30;30.77;;;16.80;99.90;;;;;;4809512;29;20529;-88
2021/07/26 02:43:21;;;;;;;49.05;30.95;;;16.80;99.90;;;;;;4819298;29;20054;-88
2021/07/26 02:45:48;;;;;;;49.58;31.92;;;16.80;99.90;;;;;;4823922;29;20370;-87
2021/07/26 02:48:15;;;;;;;46.78;29.98;;;16.80;99.90;;;;;;4823421;29;20472;-87
2021/07/26 02:50:42;;;;;;;56.97;30.08;;;16.80;99.90;;;;;;4824046;29;20054;-87
2021/07/26 02:53:09;;;;;;;52.78;31.52;;;16.80;99.90;;;;;;4823562;29;20536;-88
2021/07/26 02:55:38;;;;;;;50.72;29.83;;;16.80;99.90;;;;;;4822876;29;20057;-88
2021/07/26 02:58:05;;;;;;;44.28;28.48;;;16.80;99.90;;;;;;4805957;29;20085;-88
2021/07/26 03:00:32;;;;;;;47.20;30.58;;;16.80;99.90;;;;;;4823705;29;20050;-88
2021/07/26 03:02:59;;;;;;;46.50;29.30;;;16.80;99.90;;;;;;4823447;29;20394;-88
2021/07/26 03:05:27;;;;;;;44.95;30.00;;;16.80;99.90;;;;;;4822186;29;20054;-87
2021/07/26 03:07:54;;;;;;;54.08;31.65;;;16.80;99.90;;;;;;4799857;29;20042;-88
2021/07/26 03:10:21;;;;;;;48.80;30.90;;;16.80;99.90;;;;;;4807461;29;20054;-87
2021/07/26 03:12:48;;;;;;;48.40;29.92;;;16.80;99.90;;;;;;4807394;29;20051;-88
2021/07/26 03:15:15;;;;;;;49.75;30.08;;;16.80;99.90;;;;;;4821612;29;20042;-88
2021/07/26 03:17:42;;;;;;;46.35;29.95;;;16.90;99.90;;;;;;4823651;29;20069;-88
2021/07/26 03:20:09;;;;;;;46.78;29.65;;;16.90;99.90;;;;;;4822869;29;20038;-88
2021/07/26 03:22:59;;;;;;;52.83;30.80;;;16.90;99.90;;;;;;4799358;29;20394;-88
2021/07/26 03:25:27;;;;;;;46.95;30.20;;;16.90;99.90;;;;;;4806943;29;20042;-88
2021/07/26 03:27:56;;;;;;;42.30;30.42;;;17.00;99.90;;;;;;4823367;29;20054;-88
2021/07/26 03:30:23;;;;;;;56.70;31.55;;;17.00;99.90;;;;;;4806627;29;20057;-88
2021/07/26 03:32:51;;;;;;;48.78;30.67;;;17.00;99.90;;;;;;4807179;29;20054;-88
2021/07/26 03:35:19;;;;;;;52.97;32.42;;;17.00;99.90;;;;;;4821738;29;20054;-87
2021/07/26 03:37:46;;;;;;;47.03;30.85;;;17.00;99.90;;;;;;4822062;29;20058;-88
2021/07/26 03:40:14;;;;;;;48.88;32.00;;;17.00;99.90;;;;;;4823174;29;20054;-88
2021/07/26 03:42:43;;;;;;;50.45;30.38;;;17.00;99.90;;;;;;4822023;29;20069;-88
2021/07/26 03:45:11;;;;;;;;;;;17.10;99.90;;;;;;4821622;29;20404;-87
2021/07/26 03:47:39;;;;;;;55.00;31.48;;;17.10;99.90;;;;;;4822057;29;19931;-88
2021/07/26 03:50:11;;;;;;;53.88;30.95;;;17.10;99.90;;;;;;4822725;29;20050;-88
2021/07/26 03:52:42;;;;;;;61.00;33.40;;;17.10;99.90;;;;;;4822055;29;20046;-88
2021/07/26 03:55:10;;;;;;;52.13;31.90;;;17.10;99.90;;;;;;4820647;29;20054;-88
2021/07/26 03:57:37;;;;;;;52.60;31.60;;;17.10;99.90;;;;;;4823198;29;20480;-89
2021/07/26 04:00:06;;;;;;;52.95;32.65;;;17.00;99.90;;;;;;4822328;29;20137;-88
2021/07/26 04:02:33;;;;;;;50.45;32.58;;;17.00;99.90;;;;;;4822607;29;20055;-88
2021/07/26 04:05:04;;;;;;;48.60;32.80;;;17.00;99.90;;;;;;4822996;29;20046;-87
2021/07/26 04:07:35;;;;;;;52.60;32.80;;;17.00;99.90;;;;;;4798858;29;20058;-88
2021/07/26 04:10:06;;;;;;;51.88;33.05;;;17.00;99.90;;;;;;4827024;29;20081;-88
2021/07/26 04:12:34;;;;;;;54.88;33.20;;;17.00;99.90;;;;;;4826582;29;20061;-88
2021/07/26 04:15:08;;;;;;;53.38;33.17;;;17.00;99.90;;;;;;4826490;29;20043;-88
2021/07/26 04:17:35;;;;;;;54.20;34.22;;;17.00;99.90;;;;;;4826360;29;20054;-88
2021/07/26 04:20:06;;;;;;;64.75;35.20;;;17.00;99.90;;;;;;4825361;29;20050;-88
2021/07/26 04:22:34;;;;;;;56.05;34.25;;;16.90;99.90;;;;;;4826191;29;20121;-88
2021/07/26 04:25:04;;;;;;;56.50;33.85;;;16.90;99.90;;;;;;4810456;29;20142;-88
2021/07/26 04:27:35;;;;;;;56.03;34.08;;;16.90;99.90;;;;;;4825568;29;20127;-88
2021/07/26 04:30:04;;;;;;;54.60;34.53;;;16.90;99.90;;;;;;4825953;29;20138;-88
2021/07/26 04:32:40;;;;;;;60.20;35.72;;;16.80;99.90;;;;;;4809506;29;20490;-88
2021/07/26 04:35:07;;;;;;;58.38;35.63;;;16.80;99.90;;;;;;4825466;29;20133;-88
2021/07/26 04:37:36;;;;;;;56.38;35.35;;;16.80;99.90;;;;;;4825938;29;20107;-88
2021/07/26 04:40:05;;;;;;;55.85;35.72;;;16.80;99.90;;;;;;4823172;29;20058;-88
2021/07/26 04:42:32;;;;;;;58.28;36.08;;;16.80;99.90;;;;;;4825574;29;20062;-88
2021/07/26 04:44:59;;;;;;;61.17;36.75;;;16.80;99.90;;;;;;4825929;29;20050;-88
2021/07/26 04:47:27;;;;;;;;;;;16.80;99.90;;;;;;4825473;29;20073;-88
2021/07/26 04:49:54;;;;;;;62.53;35.00;;;16.80;99.90;;;;;;4825829;29;20386;-88
2021/07/26 04:52:21;;;;;;;64.47;36.60;;;16.80;99.90;;;;;;4827314;29;20133;-87
2021/07/26 04:54:49;;;;;;;64.50;39.25;;;16.80;99.90;;;;;;4826772;29;20078;-88
2021/07/26 04:57:16;;;;;;;64.68;38.30;;;16.80;99.90;;;;;;4824032;29;20516;-88
2021/07/26 04:59:43;;;;;;;65.43;38.08;;;16.80;99.90;;;;;;4825601;29;20058;-88
2021/07/26 05:02:10;;;;;;;62.50;37.42;;;16.90;99.90;;;;;;4824906;29;20047;-88
2021/07/26 05:04:37;;;;;;;62.30;37.70;;;16.90;99.90;;;;;;4825805;29;20145;-88
2021/07/26 05:07:04;;;;;;;67.93;36.50;;;16.90;99.90;;;;;;4825644;29;20054;-87
2021/07/26 05:09:40;;;;;;;61.90;36.38;;;16.90;99.90;;;;;;4824903;29;20517;-88
2021/07/26 05:12:12;;;;;;;63.40;37.33;;;17.00;99.90;;;;;;4823873;29;20061;-88
2021/07/26 05:14:41;;;;;;;66.70;37.25;;;17.00;99.90;;;;;;4824419;29;20056;-88
2021/07/26 05:17:11;;;;;;;59.67;36.17;;;17.00;99.90;;;;;;4823873;29;20047;-88
2021/07/26 05:19:38;;;;;;;65.07;38.85;;;17.00;99.90;;;;;;4824705;29;20050;-89
2021/07/26 05:22:05;;;;;;;57.20;35.38;;;17.10;99.90;;;;;;4809593;29;20398;-88
2021/07/26 05:24:33;;;;;;;55.25;34.33;;;17.10;99.90;;;;;;4825477;29;20054;-88
2021/07/26 05:27:02;;;;;;;62.60;36.80;;;17.10;99.90;;;;;;4817383;29;20046;-88
2021/07/26 05:29:30;;;;;;;56.55;35.40;;;17.10;99.90;;;;;;4838719;29;20047;-87
2021/07/26 05:31:58;;;;;;;56.97;35.90;;;17.10;99.90;;;;;;4825212;29;20053;-88
2021/07/26 05:34:26;;;;;;;54.67;33.30;;;17.10;99.90;;;;;;4825567;29;20156;-88
2021/07/26 05:36:54;;;;;;;47.80;33.53;;;17.10;99.90;;;;;;4824868;29;20074;-88
2021/07/26 05:39:23;;;;;;;49.72;33.63;;;17.10;99.90;;;;;;4824574;29;20050;-89
2021/07/26 05:41:58;;;;;;;51.58;33.13;;;17.10;99.90;;;;;;4825735;29;20050;-88
2021/07/26 05:44:25;;;;;;;54.40;33.85;;;17.20;99.90;;;;;;4823285;29;20048;-89
2021/07/26 05:46:52;;;;;;;47.20;31.90;;;17.20;99.90;;;;;;4809269;29;20050;-89
2021/07/26 05:49:19;;;;;;;47.13;32.85;;;17.20;99.90;;;;;;4814937;29;20077;-89
2021/07/26 05:51:46;;;;;;;50.20;33.58;;;17.30;99.90;;;;;;4835615;29;20054;-88
2021/07/26 05:54:13;;;;;;;52.00;32.35;;;17.30;99.90;;;;;;4824679;29;20054;-89
2021/07/26 05:56:45;;;;;;;52.97;32.50;;;17.30;99.90;;;;;;4824776;29;20046;-89
2021/07/26 05:59:13;;;;;;;47.05;31.27;;;17.40;99.90;;;;;;4823195;29;20050;-89
2021/07/26 06:01:47;;;;;;;48.10;31.55;;;17.30;99.90;;;;;;4823247;29;20054;-89
2021/07/26 06:04:19;;;;;;;41.38;29.60;;;17.40;99.90;;;;;;4823715;29;20066;-88
2021/07/26 06:06:49;;;;;;;47.85;30.38;;;17.40;99.90;;;;;;4818393;29;20481;-87
2021/07/26 06:09:16;;;;;;;46.80;30.95;;;17.40;99.90;;;;;;4821922;29;20046;-89
2021/07/26 06:11:45;;;;;;;42.88;29.10;;;17.50;99.90;;;;;;4824724;29;20054;-89
2021/07/26 06:14:12;;;;;;;41.50;29.90;;;17.50;99.90;;;;;;4822693;29;20054;-89
2021/07/26 06:16:47;;;;;;;41.87;29.53;;;17.60;99.90;;;;;;4823667;29;20396;-89
2021/07/26 06:19:15;;;;;;;44.75;28.92;;;17.60;99.90;;;;;;4806246;29;20296;-89
2021/07/26 06:21:47;;;;;;;42.15;28.17;;;17.60;99.90;;;;;;4808414;29;20050;-90
2021/07/26 06:24:16;;;;;;;44.65;29.30;;;17.70;99.90;;;;;;4822904;29;20050;-89
2021/07/26 06:26:44;;;;;;;43.42;28.70;;;17.70;99.90;;;;;;4824273;29;20118;-89
2021/07/26 06:29:11;;;;;;;44.10;29.02;;;17.70;99.90;;;;;;4822767;29;20049;-89
2021/07/26 06:31:39;;;;;;;41.33;28.65;;;17.70;99.90;;;;;;4808113;29;20453;-89
2021/07/26 06:34:06;;;;;;;44.50;28.70;;;17.70;99.90;;;;;;4823337;29;20056;-88
2021/07/26 06:36:35;;;;;;;35.47;26.65;;;17.80;99.90;;;;;;4824392;29;20050;-89
2021/07/26 06:39:03;;;;;;;39.55;28.45;;;17.80;99.90;;;;;;4824261;29;20052;-89
2021/07/26 06:41:30;;;;;;;37.03;26.05;;;17.90;99.90;;;;;;4822834;29;20134;-89
2021/07/26 06:43:59;;;;;;;40.00;26.00;;;18.00;99.90;;;;;;4822978;29;20054;-89
2021/07/26 06:46:27;;;;;;;36.35;27.85;;;18.10;99.90;;;;;;4824010;29;20046;-89
2021/07/26 06:48:54;;;;;;;33.42;25.08;;;18.20;99.90;;;;;;4815542;29;20122;-89
2021/07/26 06:51:22;;;;;;;32.72;26.15;;;18.20;99.90;;;;;;4820195;29;20047;-88
2021/07/26 06:53:49;;;;;;;34.45;25.77;;;18.30;99.90;;;;;;4818580;29;20497;-88
2021/07/26 06:56:17;;;;;;;38.65;25.95;;;18.30;99.90;;;;;;4806389;29;20076;-88
2021/07/26 06:58:44;;;;;;;33.00;25.52;;;18.30;99.90;;;;;;4821453;29;20065;-88
2021/07/26 07:01:15;;;;;;;31.77;24.85;;;18.30;99.90;;;;;;4820910;29;20519;-88
2021/07/26 07:03:45;;;;;;;31.10;24.42;;;18.40;99.90;;;;;;4811154;29;20073;-89
2021/07/26 07:06:16;;;;;;;30.73;24.17;;;18.40;99.90;;;;;;4819750;29;20114;-89
2021/07/26 07:08:44;;;;;;;31.98;24.13;;;18.40;99.90;;;;;;4817026;29;20145;-87
2021/07/26 07:11:15;;;;;;;29.42;24.25;;;18.40;99.90;;;;;;4832545;29;20071;-88
2021/07/26 07:13:45;;;;;;;27.88;23.88;;;18.40;99.90;;;;;;4815043;29;20443;-89
2021/07/26 07:16:17;;;;;;;28.25;22.58;;;18.50;99.90;;;;;;4822898;29;20054;-89
2021/07/26 07:18:45;;;;;;;25.95;22.92;;;18.60;99.90;;;;;;4818206;29;20058;-89
2021/07/26 07:21:17;;;;;;;29.23;23.67;;;18.60;99.90;;;;;;4822336;29;20085;-88
2021/07/26 07:23:45;;;;;;;28.83;24.25;;;18.70;99.90;;;;;;4815044;29;20063;-89
2021/07/26 07:26:13;;;;;;;35.85;23.45;;;18.70;99.90;;;;;;4814640;29;20134;-88
2021/07/26 07:28:40;;;;;;;24.77;21.90;;;18.80;99.90;;;;;;4816007;29;20429;-88
2021/07/26 07:31:07;;;;;;;28.58;22.08;;;18.80;99.90;;;;;;4826854;29;20046;-90
2021/07/26 07:33:35;;;;;;;28.48;22.00;;;18.90;99.90;;;;;;4817466;29;20500;-89
2021/07/26 07:36:05;;;;;;;24.27;19.63;;;19.00;99.90;;;;;;4820999;29;20392;-88
2021/07/26 07:38:33;;;;;;;23.98;20.63;;;19.00;99.90;;;;;;4819315;29;20050;-88
2021/07/26 07:41:02;;;;;;;25.55;20.02;;;19.10;99.90;;;;;;4815836;29;20043;-88
2021/07/26 07:43:29;;;;;;;24.52;20.25;;;19.10;99.90;;;;;;4814006;29;20050;-88
2021/07/26 07:45:58;;;;;;;22.97;20.40;;;19.10;99.90;;;;;;4821641;29;20512;-88
2021/07/26 07:48:28;;;;;;;26.52;20.52;;;19.10;99.90;;;;;;4814355;29;20050;-89
2021/07/26 07:50:55;;;;;;;25.50;20.10;;;19.10;99.90;;;;;;4823960;29;20048;-89
2021/07/26 07:53:23;;;;;;;23.45;19.20;;;19.10;99.90;;;;;;4817705;29;20053;-89
2021/07/26 07:55:51;;;;;;;26.13;20.15;;;19.20;99.90;;;;;;4816399;29;20051;-88
2021/07/26 07:58:19;;;;;;;;;;;19.20;99.90;;;;;;4816008;29;20065;-88
2021/07/26 08:00:52;;;;;;;23.73;18.55;;;19.20;99.90;;;;;;4821227;29;19936;-89
2021/07/26 08:03:20;;;;;;;20.15;17.52;;;19.20;99.90;;;;;;4815362;29;20059;-88
2021/07/26 08:05:49;;;;;;;20.77;18.08;;;19.30;99.90;;;;;;4821108;29;20066;-89
2021/07/26 08:08:16;;;;;;;23.75;19.63;;;19.30;99.90;;;;;;4818885;29;20054;-88
2021/07/26 08:10:44;;;;;;;22.10;18.40;;;19.30;99.90;;;;;;4816282;29;20046;-88
2021/07/26 08:13:11;;;;;;;19.33;16.45;;;19.50;99.90;;;;;;4817124;29;20383;-89
2021/07/26 08:15:38;;;;;;;17.50;15.90;;;19.70;99.90;;;;;;4811117;29;20057;-89
2021/07/26 08:18:06;;;;;;;16.38;14.52;;;19.90;99.90;;;;;;4818865;29;20050;-89
2021/07/26 08:20:33;;;;;;;16.92;15.10;;;20.10;99.90;;;;;;4799588;29;20056;-89
2021/07/26 08:23:00;;;;;;;13.60;12.02;;;20.30;99.90;;;;;;4818804;29;20058;-89
2021/07/26 08:25:29;;;;;;;9.77;8.60;;;20.50;99.90;;;;;;4817285;29;20114;-88
2021/07/26 08:27:58;;;;;;;10.52;9.07;;;20.70;99.90;;;;;;4824391;29;20065;-88
2021/07/26 08:30:28;;;;;;;;;;;20.80;99.90;;;;;;4824039;29;20057;-89
2021/07/26 08:33:00;;;;;;;11.77;9.23;;;20.70;99.90;;;;;;4819132;29;19924;-88
2021/07/26 08:35:29;;;;;;;10.70;9.10;;;20.60;99.90;;;;;;4817310;29;20491;-89
2021/07/26 08:37:56;;;;;;;10.68;9.15;;;20.70;99.90;;;;;;4818412;29;20051;-89
2021/07/26 08:40:25;;;;;;;9.85;8.85;;;20.70;99.90;;;;;;4813999;29;20055;-89
2021/07/26 08:43:02;;;;;;;9.23;8.20;;;20.80;99.90;;;;;;4817395;29;20134;-89
2021/07/26 08:45:34;;;;;;;10.13;8.45;;;20.90;99.90;;;;;;4791957;29;20046;-89
2021/07/26 08:48:11;;;;;;;12.77;8.75;;;20.90;99.90;;;;;;4809294;29;20057;-88
2021/07/26 08:50:41;;;;;;;10.30;9.20;;;21.20;99.90;;;;;;4814316;29;20060;-89
2021/07/26 08:53:09;;;;;;;10.52;9.30;;;21.30;99.90;;;;;;4828735;29;20050;-89
2021/07/26 08:55:36;;;;;;;11.02;9.02;;;21.50;99.90;;;;;;4813466;29;20054;-89
2021/07/26 08:58:06;;;;;;;11.75;10.23;;;21.60;99.90;;;;;;4815466;29;20138;-89
2021/07/26 09:00:33;;;;;;;12.40;10.35;;;21.70;99.90;;;;;;4806389;29;20054;-88
2021/07/26 09:03:04;;;;;;;11.93;10.38;;;21.70;99.90;;;;;;4806981;29;20053;-88
2021/07/26 09:05:31;;;;;;;11.85;9.88;;;21.60;99.90;;;;;;4808944;29;20438;-88
2021/07/26 09:08:02;;;;;;;12.23;9.65;;;21.60;99.90;;;;;;4820755;29;20251;-89
2021/07/26 09:10:35;;;;;;;10.77;9.65;;;21.50;99.90;;;;;;4819595;29;20050;-89
2021/07/26 09:13:03;;;;;;;11.63;9.75;;;21.50;99.90;;;;;;4821826;29;20055;-89
2021/07/26 09:15:35;;;;;;;11.65;9.35;;;21.60;99.90;;;;;;4821633;29;20054;-89
2021/07/26 09:18:07;;;;;;;11.23;8.93;;;21.90;99.90;;;;;;4819780;29;20465;-88
2021/07/26 09:20:39;;;;;;;12.80;9.73;;;22.00;99.90;;;;;;4822229;29;20052;-89
2021/07/26 09:23:12;;;;;;;14.27;10.45;;;22.00;99.90;;;;;;4818706;29;20051;-88
2021/07/26 09:25:43;;;;;;;16.58;11.27;;;21.90;99.90;;;;;;4821126;29;20462;-88
2021/07/26 09:28:16;;;;;;;12.75;11.05;;;21.70;99.90;;;;;;4799186;29;20054;-88
2021/07/26 09:30:55;;;;;;;13.35;10.40;;;21.50;99.90;;;;;;4818129;29;20587;-89
2021/07/26 09:33:32;;;;;;;12.27;10.05;;;21.70;99.90;;;;;;4817911;29;20046;-89
2021/07/26 09:36:22;;;;;;;10.73;9.45;;;21.70;99.90;;;;;;4802132;29;20047;-89
2021/07/26 09:38:49;;;;;;;10.18;8.95;;;21.60;99.90;;;;;;4817940;29;20137;-88
2021/07/26 09:41:17;;;;;;;11.55;9.38;;;21.60;99.90;;;;;;4817312;29;20057;-88
2021/07/26 09:43:44;;;;;;;10.30;9.07;;;21.70;99.90;;;;;;4820714;29;20095;-89
2021/07/26 09:46:27;;;;;;;12.85;8.43;;;21.80;99.90;;;;;;4796921;29;20043;-91
2021/07/26 09:49:15;;;;;;;10.60;8.35;;;21.90;99.90;;;;;;4827494;29;20050;-89
2021/07/26 09:52:01;;;;;;;9.48;8.57;;;22.10;99.90;;;;;;4822317;29;20047;-89
2021/07/26 09:54:49;;;;;;;11.02;8.55;;;22.00;99.90;;;;;;4821371;29;20046;-89
2021/07/26 09:57:19;;;;;;;10.52;8.30;;;21.70;99.90;;;;;;4818620;29;20050;-88
2021/07/26 09:59:48;;;;;;;12.40;8.27;;;21.60;99.90;;;;;;4815944;29;20066;-88
2021/07/26 10:02:20;;;;;;;10.77;8.40;;;21.40;99.90;;;;;;4819616;29;20050;-88
2021/07/26 10:04:48;;;;;;;9.73;8.60;;;21.40;99.90;;;;;;4824811;29;20137;-89
2021/07/26 10:07:17;;;;;;;10.13;8.23;;;21.60;99.90;;;;;;4820433;29;20121;-88
2021/07/26 10:09:47;;;;;;;10.25;8.40;;;21.80;99.90;;;;;;4818160;29;20086;-88
2021/07/26 10:12:16;;;;;;;9.20;8.07;;;21.90;99.90;;;;;;4820965;29;20057;-88
2021/07/26 10:14:46;;;;;;;9.50;8.05;;;21.80;99.90;;;;;;4805474;29;20309;-88
2021/07/26 10:17:14;;;;;;;10.13;8.00;;;21.80;99.90;;;;;;4820656;29;20064;-88
2021/07/26 10:19:41;;;;;;;11.27;9.10;;;21.80;99.90;;;;;;4820746;29;20480;-88
2021/07/26 10:22:15;;;;;;;11.05;9.00;;;21.70;99.90;;;;;;4822604;29;20064;-88
2021/07/26 10:24:50;;;;;;;10.73;9.02;;;21.70;99.90;;;;;;4820723;29;20489;-88
2021/07/26 10:27:21;;;;;;;11.43;7.80;;;21.90;99.90;;;;;;4818737;29;20051;-88
2021/07/26 10:29:54;;;;;;;8.63;7.70;;;22.20;99.90;;;;;;4816676;29;20477;-87
2021/07/26 10:32:30;;;;;;;8.07;7.22;;;22.40;99.90;;;;;;4816537;29;20503;-88
2021/07/26 10:34:57;;;;;;;15.25;7.95;;;22.40;99.90;;;;;;4816710;29;20460;-87
2021/07/26 10:37:39;;;;;;;9.88;7.63;;;22.40;99.90;;;;;;4803011;29;20107;-89
2021/07/26 10:40:23;;;;;;;9.45;8.07;;;22.40;99.90;;;;;;4807241;29;20384;-88
2021/07/26 10:42:52;;;;;;;12.65;8.10;;;22.30;99.90;;;;;;4795957;29;20050;-88
2021/07/26 10:45:36;;;;;;;8.65;6.82;;;22.40;99.90;;;;;;4817611;29;20058;-87
2021/07/26 10:48:27;;;;;;;8.98;7.72;;;22.50;99.90;;;;;;4820207;29;20061;-87
2021/07/26 10:50:56;;;;;;;8.75;7.45;;;22.40;99.90;;;;;;4817868;29;20561;-87
2021/07/26 10:53:35;;;;;;;7.50;6.80;;;22.50;99.90;;;;;;4818973;29;20064;-88
2021/07/26 10:56:06;;;;;;;8.13;6.90;;;22.60;99.90;;;;;;4798591;29;20408;-88
2021/07/26 10:58:42;;;;;;;9.52;6.75;;;22.70;99.90;;;;;;4817050;29;20049;-88
2021/07/26 11:01:23;;;;;;;7.32;6.35;;;23.00;99.90;;;;;;4786841;29;20051;-88
2021/07/26 11:03:52;;;;;;;9.52;6.95;;;23.20;99.90;;;;;;4801608;29;20061;-88
2021/07/26 11:06:38;;;;;;;8.82;7.10;;;23.40;99.90;;;;;;4809059;29;20069;-88
2021/07/26 11:09:44;;;;;;;8.43;7.38;;;23.40;99.90;;;;;;4807224;29;20057;-88
2021/07/26 11:12:10;;;;;;;9.48;6.80;;;23.10;99.90;;;;;;4798926;29;20061;-88
2021/07/26 11:15:15;;;;;;;9.07;7.13;;;23.10;99.90;;;;;;4800103;29;20062;-88
2021/07/26 11:18:19;;;;;;;9.32;7.93;;;23.10;99.90;;;;;;4800103;29;20055;-88
2021/07/26 11:21:04;;;;;;;10.85;8.30;;;23.10;99.90;;;;;;4794718;29;20366;-88
2021/07/26 11:23:46;;;;;;;9.23;8.13;;;22.90;99.90;;;;;;4777468;29;20054;-88
2021/07/26 11:26:28;;;;;;;9.00;8.13;;;23.00;99.90;;;;;;4798497;29;20050;-90
2021/07/26 11:29:00;;;;;;;10.65;8.68;;;23.00;99.90;;;;;;4785533;29;20059;-89
2021/07/26 11:31:33;;;;;;;9.95;8.13;;;23.00;99.90;;;;;;4784000;29;20125;-89
2021/07/26 11:34:56;;;;;;;9.50;7.40;;;23.00;99.90;;;;;;4786334;29;20055;-91
2021/07/26 11:37:58;;;;;;;;;;;;;;;;;;;;;
2021/07/26 11:40:43;;;;;;;10.75;8.07;;;23.30;99.90;;;;;;4763360;29;20127;-89
2021/07/26 11:43:11;;;;;;;8.55;7.45;;;23.50;99.90;;;;;;4783617;29;20053;-89
2021/07/26 11:45:38;;;;;;;13.25;8.73;;;23.40;99.90;;;;;;4782652;29;20074;-88
2021/07/26 11:48:07;;;;;;;9.75;8.75;;;23.30;99.90;;;;;;4800517;29;20061;-88
2021/07/26 11:50:40;;;;;;;8.90;7.88;;;23.40;99.90;;;;;;4799021;29;20566;-89
2021/07/26 11:53:15;;;;;;;8.75;7.85;;;23.40;99.90;;;;;;4788214;29;20059;-88
2021/07/26 11:55:42;;;;;;;10.18;7.50;;;23.50;99.90;;;;;;4799564;29;20042;-88
2021/07/26 11:58:09;;;;;;;8.40;7.60;;;23.50;99.90;;;;;;4795341;29;20055;-89
2021/07/26 12:00:44;;;;;;;13.35;8.32;;;23.50;99.90;;;;;;4771945;29;20048;-89
2021/07/26 12:03:16;;;;;;;11.45;9.43;;;23.50;99.90;;;;;;4796483;29;20133;-89
2021/07/26 12:05:45;;;;;;;10.90;8.45;;;23.60;99.90;;;;;;4801781;29;20055;-88
2021/07/26 12:08:18;;;;;;;9.13;8.23;;;23.80;99.90;;;;;;4789830;29;20051;-89
2021/07/26 12:10:46;;;;;;;11.00;7.88;;;23.80;99.90;;;;;;4804237;29;20448;-88
2021/07/26 12:13:16;;;;;;;10.65;8.07;;;23.60;99.90;;;;;;4804950;29;20122;-89
2021/07/26 12:15:44;;;;;;;8.63;7.45;;;23.70;99.90;;;;;;4788129;29;20053;-89
2021/07/26 12:18:33;;;;;;;10.63;8.82;;;23.70;99.90;;;;;;4792173;29;20461;-88
2021/07/26 12:21:00;;;;;;;9.10;7.88;;;23.70;99.90;;;;;;4802155;29;20109;-88
2021/07/26 12:23:29;;;;;;;10.57;8.55;;;23.60;99.90;;;;;;4798143;29;20043;-88
2021/07/26 12:26:05;;;;;;;;;;;23.30;99.90;;;;;;4811964;29;20065;-89
2021/07/26 12:28:42;;;;;;;10.13;7.55;;;23.30;99.90;;;;;;4808148;29;19952;-88
2021/07/26 12:31:30;;;;;;;8.60;7.70;;;23.30;99.90;;;;;;4795820;29;20497;-88
2021/07/26 12:34:23;;;;;;;9.68;8.73;;;23.40;99.90;;;;;;4789780;29;20047;-88
2021/07/26 12:36:52;;;;;;;15.48;13.82;;;23.30;99.90;;;;;;4793655;29;20534;-88
2021/07/26 12:39:19;;;;;;;11.05;9.90;;;23.20;99.90;;;;;;4803645;29;20061;-88
2021/07/26 12:41:50;;;;;;;9.18;8.27;;;23.20;99.90;;;;;;4795667;29;20059;-88
2021/07/26 12:44:36;;;;;;;16.20;13.88;;;23.10;99.90;;;;;;4793682;29;20051;-87
2021/07/26 12:47:24;;;;;;;22.15;20.02;;;23.10;99.90;;;;;;4802382;29;20051;-88
2021/07/26 12:49:54;;;;;;;11.63;9.00;;;23.00;99.90;;;;;;4802050;29;20054;-88
2021/07/26 12:52:21;;;;;;;19.15;16.10;;;23.00;99.90;;;;;;4801797;29;20469;-88